sensor_id;sensor_type;location;lat;lon;timestamp;P1;durP1;ratioP1;P2;durP2;ratioP2
78372;SDS011;67656;52.074;4.758;2023-03-15T00:02:56;1.23;;;0.50;;
78372;SDS011;67656;52.074;4.758;2023-03-15T00:07:57;2.30;;;0.40;;
78372;SDS011;67656;52.074;4.758;2023-03-15T00:12:58;1.93;;;0.40;;
78372;SDS011;67656;52.074;4.758;2023-03-15T00:17:58;3.47;;;0.60;;
78372;SDS011;67656;52.074;4.758;2023-03-15T00:22:58;1.60;;;0.50;;
78372;SDS011;67656;52.074;4.758;2023-03-15T00:27:58;1.60;;;0.60;;
78372;SDS011;67656;52.074;4.758;2023-03-15T00:32:59;1.30;;;0.55;;
78372;SDS011;67656;52.074;4.758;2023-03-15T00:37:59;3.72;;;0.65;;
78372;SDS011;67656;52.074;4.758;2023-03-15T00:42:59;3.75;;;0.45;;
78372;SDS011;67656;52.074;4.758;2023-03-15T00:47:59;2.03;;;0.50;;
78372;SDS011;67656;52.074;4.758;2023-03-15T00:53:00;2.35;;;0.43;;
78372;SDS011;67656;52.074;4.758;2023-03-15T00:58:01;2.57;;;0.50;;
78372;SDS011;67656;52.074;4.758;2023-03-15T01:03:02;0.55;;;0.45;;
78372;SDS011;67656;52.074;4.758;2023-03-15T01:08:02;1.47;;;0.47;;
78372;SDS011;67656;52.074;4.758;2023-03-15T01:13:04;1.17;;;0.40;;
78372;SDS011;67656;52.074;4.758;2023-03-15T01:18:04;1.90;;;0.30;;
78372;SDS011;67656;52.074;4.758;2023-03-15T01:23:06;0.97;;;0.37;;
78372;SDS011;67656;52.074;4.758;2023-03-15T01:28:06;1.00;;;0.35;;
78372;SDS011;67656;52.074;4.758;2023-03-15T01:33:06;1.53;;;0.53;;
78372;SDS011;67656;52.074;4.758;2023-03-15T01:38:07;1.00;;;0.50;;
78372;SDS011;67656;52.074;4.758;2023-03-15T01:43:15;1.97;;;0.50;;
78372;SDS011;67656;52.074;4.758;2023-03-15T01:48:17;1.67;;;0.70;;
78372;SDS011;67656;52.074;4.758;2023-03-15T01:53:20;5.20;;;0.80;;
78372;SDS011;67656;52.074;4.758;2023-03-15T01:58:23;5.65;;;0.90;;
78372;SDS011;67656;52.074;4.758;2023-03-15T02:03:28;2.43;;;0.60;;
78372;SDS011;67656;52.074;4.758;2023-03-15T02:08:36;2.17;;;0.63;;
78372;SDS011;67656;52.074;4.758;2023-03-15T02:13:40;5.00;;;0.87;;
78372;SDS011;67656;52.074;4.758;2023-03-15T02:18:42;1.70;;;0.60;;
78372;SDS011;67656;52.074;4.758;2023-03-15T02:23:43;1.60;;;0.60;;
78372;SDS011;67656;52.074;4.758;2023-03-15T02:28:50;3.00;;;0.77;;
78372;SDS011;67656;52.074;4.758;2023-03-15T02:33:53;4.50;;;1.00;;
78372;SDS011;67656;52.074;4.758;2023-03-15T02:38:55;4.43;;;0.70;;
78372;SDS011;67656;52.074;4.758;2023-03-15T02:43:57;3.63;;;0.63;;
78372;SDS011;67656;52.074;4.758;2023-03-15T02:49:05;4.83;;;0.80;;
78372;SDS011;67656;52.074;4.758;2023-03-15T02:54:07;5.30;;;0.80;;
78372;SDS011;67656;52.074;4.758;2023-03-15T02:59:08;4.57;;;0.60;;
78372;SDS011;67656;52.074;4.758;2023-03-15T03:04:08;1.60;;;0.50;;
78372;SDS011;67656;52.074;4.758;2023-03-15T03:09:09;2.17;;;0.50;;
78372;SDS011;67656;52.074;4.758;2023-03-15T03:14:11;1.90;;;0.70;;
78372;SDS011;67656;52.074;4.758;2023-03-15T03:19:11;1.57;;;0.50;;
78372;SDS011;67656;52.074;4.758;2023-03-15T03:24:13;1.47;;;0.60;;
78372;SDS011;67656;52.074;4.758;2023-03-15T03:29:14;1.57;;;0.60;;
78372;SDS011;67656;52.074;4.758;2023-03-15T03:34:14;6.47;;;0.97;;
78372;SDS011;67656;52.074;4.758;2023-03-15T03:39:15;1.17;;;0.40;;
78372;SDS011;67656;52.074;4.758;2023-03-15T03:44:17;1.97;;;0.67;;
78372;SDS011;67656;52.074;4.758;2023-03-15T03:49:18;8.03;;;0.80;;
78372;SDS011;67656;52.074;4.758;2023-03-15T03:54:20;3.33;;;0.80;;
78372;SDS011;67656;52.074;4.758;2023-03-15T03:59:20;2.07;;;0.70;;
78372;SDS011;67656;52.074;4.758;2023-03-15T04:04:32;5.83;;;0.80;;
78372;SDS011;67656;52.074;4.758;2023-03-15T04:09:33;2.87;;;0.53;;
78372;SDS011;67656;52.074;4.758;2023-03-15T04:14:33;2.17;;;0.70;;
78372;SDS011;67656;52.074;4.758;2023-03-15T04:19:34;5.73;;;1.00;;
78372;SDS011;67656;52.074;4.758;2023-03-15T04:24:35;5.37;;;0.70;;
78372;SDS011;67656;52.074;4.758;2023-03-15T04:29:43;4.67;;;0.63;;
78372;SDS011;67656;52.074;4.758;2023-03-15T04:34:57;2.00;;;0.63;;
78372;SDS011;67656;52.074;4.758;2023-03-15T04:40:13;1.57;;;0.60;;
78372;SDS011;67656;52.074;4.758;2023-03-15T04:45:40;1.20;;;0.50;;
78372;SDS011;67656;52.074;4.758;2023-03-15T04:51:03;2.80;;;0.60;;
78372;SDS011;67656;52.074;4.758;2023-03-15T04:56:27;2.20;;;0.60;;
78372;SDS011;67656;52.074;4.758;2023-03-15T05:01:41;3.13;;;0.60;;
78372;SDS011;67656;52.074;4.758;2023-03-15T05:07:04;5.13;;;0.63;;
78372;SDS011;67656;52.074;4.758;2023-03-15T05:12:22;3.87;;;0.63;;
78372;SDS011;67656;52.074;4.758;2023-03-15T05:17:43;1.00;;;0.50;;
78372;SDS011;67656;52.074;4.758;2023-03-15T05:23:01;2.67;;;0.67;;
78372;SDS011;67656;52.074;4.758;2023-03-15T05:28:13;1.80;;;0.50;;
78372;SDS011;67656;52.074;4.758;2023-03-15T05:33:32;2.17;;;0.63;;
78372;SDS011;67656;52.074;4.758;2023-03-15T05:38:59;4.23;;;0.80;;
78372;SDS011;67656;52.074;4.758;2023-03-15T05:44:15;6.90;;;0.97;;
78372;SDS011;67656;52.074;4.758;2023-03-15T05:49:37;4.43;;;0.87;;
78372;SDS011;67656;52.074;4.758;2023-03-15T05:54:53;2.47;;;1.20;;
78372;SDS011;67656;52.074;4.758;2023-03-15T06:00:19;6.50;;;1.10;;
78372;SDS011;67656;52.074;4.758;2023-03-15T06:05:23;4.23;;;0.90;;
78372;SDS011;67656;52.074;4.758;2023-03-15T06:10:27;6.10;;;1.07;;
78372;SDS011;67656;52.074;4.758;2023-03-15T06:15:52;3.10;;;1.20;;
78372;SDS011;67656;52.074;4.758;2023-03-15T06:20:58;7.73;;;1.07;;
78372;SDS011;67656;52.074;4.758;2023-03-15T06:26:02;4.93;;;1.10;;
78372;SDS011;67656;52.074;4.758;2023-03-15T06:31:07;3.73;;;1.10;;
78372;SDS011;67656;52.074;4.758;2023-03-15T06:36:27;3.23;;;1.00;;
78372;SDS011;67656;52.074;4.758;2023-03-15T06:41:29;1.93;;;0.80;;
78372;SDS011;67656;52.074;4.758;2023-03-15T06:46:37;2.63;;;0.93;;
78372;SDS011;67656;52.074;4.758;2023-03-15T06:51:39;9.77;;;1.30;;
78372;SDS011;67656;52.074;4.758;2023-03-15T06:56:40;5.03;;;0.97;;
78372;SDS011;67656;52.074;4.758;2023-03-15T07:01:40;4.30;;;1.10;;
78372;SDS011;67656;52.074;4.758;2023-03-15T07:06:40;5.05;;;1.05;;
78372;SDS011;67656;52.074;4.758;2023-03-15T07:11:41;2.80;;;0.80;;
78372;SDS011;67656;52.074;4.758;2023-03-15T07:16:41;5.98;;;0.96;;
78372;SDS011;67656;52.074;4.758;2023-03-15T07:21:41;2.13;;;0.50;;
78372;SDS011;67656;52.074;4.758;2023-03-15T07:26:42;2.83;;;0.73;;
78372;SDS011;67656;52.074;4.758;2023-03-15T07:31:42;3.28;;;0.63;;
78372;SDS011;67656;52.074;4.758;2023-03-15T07:36:42;2.67;;;0.98;;
78372;SDS011;67656;52.074;4.758;2023-03-15T07:41:43;3.60;;;0.60;;
78372;SDS011;67656;52.074;4.758;2023-03-15T07:46:54;3.28;;;0.70;;
78372;SDS011;67656;52.074;4.758;2023-03-15T07:51:54;2.46;;;0.66;;
78372;SDS011;67656;52.074;4.758;2023-03-15T07:56:54;2.97;;;0.60;;
78372;SDS011;67656;52.074;4.758;2023-03-15T08:01:55;4.03;;;0.63;;
78372;SDS011;67656;52.074;4.758;2023-03-15T08:06:55;3.47;;;0.68;;
78372;SDS011;67656;52.074;4.758;2023-03-15T08:11:56;4.28;;;0.90;;
78372;SDS011;67656;52.074;4.758;2023-03-15T08:16:56;4.00;;;0.70;;
78372;SDS011;67656;52.074;4.758;2023-03-15T08:21:56;5.78;;;0.80;;
78372;SDS011;67656;52.074;4.758;2023-03-15T08:26:56;5.78;;;0.88;;
78372;SDS011;67656;52.074;4.758;2023-03-15T08:31:57;4.50;;;0.88;;
78372;SDS011;67656;52.074;4.758;2023-03-15T08:36:57;2.95;;;0.90;;
78372;SDS011;67656;52.074;4.758;2023-03-15T08:41:57;4.18;;;0.77;;
78372;SDS011;67656;52.074;4.758;2023-03-15T08:46:58;5.10;;;1.20;;
78372;SDS011;67656;52.074;4.758;2023-03-15T08:51:58;5.38;;;1.20;;
78372;SDS011;67656;52.074;4.758;2023-03-15T08:56:58;5.42;;;1.28;;
78372;SDS011;67656;52.074;4.758;2023-03-15T09:01:59;4.45;;;0.93;;
78372;SDS011;67656;52.074;4.758;2023-03-15T09:06:59;2.08;;;0.73;;
78372;SDS011;67656;52.074;4.758;2023-03-15T09:12:00;2.88;;;0.40;;
78372;SDS011;67656;52.074;4.758;2023-03-15T09:17:00;5.87;;;0.80;;
78372;SDS011;67656;52.074;4.758;2023-03-15T09:22:00;3.90;;;0.50;;
78372;SDS011;67656;52.074;4.758;2023-03-15T09:27:01;2.93;;;0.70;;
78372;SDS011;67656;52.074;4.758;2023-03-15T09:32:01;6.33;;;0.80;;
78372;SDS011;67656;52.074;4.758;2023-03-15T09:37:01;3.70;;;0.80;;
78372;SDS011;67656;52.074;4.758;2023-03-15T09:42:02;4.47;;;1.30;;
78372;SDS011;67656;52.074;4.758;2023-03-15T09:47:16;3.57;;;0.70;;
78372;SDS011;67656;52.074;4.758;2023-03-15T09:52:41;2.33;;;0.68;;
78372;SDS011;67656;52.074;4.758;2023-03-15T09:57:46;5.05;;;0.90;;
78372;SDS011;67656;52.074;4.758;2023-03-15T10:02:54;3.22;;;0.47;;
78372;SDS011;67656;52.074;4.758;2023-03-15T10:07:59;4.13;;;0.70;;
78372;SDS011;67656;52.074;4.758;2023-03-15T10:13:21;2.40;;;0.52;;
78372;SDS011;67656;52.074;4.758;2023-03-15T10:18:37;2.28;;;0.77;;
78372;SDS011;67656;52.074;4.758;2023-03-15T10:23:44;3.28;;;0.60;;
78372;SDS011;67656;52.074;4.758;2023-03-15T10:28:52;3.03;;;0.70;;
78372;SDS011;67656;52.074;4.758;2023-03-15T10:33:52;5.65;;;0.68;;
78372;SDS011;67656;52.074;4.758;2023-03-15T10:38:53;2.63;;;0.60;;
78372;SDS011;67656;52.074;4.758;2023-03-15T10:43:59;4.40;;;0.60;;
78372;SDS011;67656;52.074;4.758;2023-03-15T10:49:12;4.55;;;0.70;;
78372;SDS011;67656;52.074;4.758;2023-03-15T10:54:21;2.40;;;0.50;;
78372;SDS011;67656;52.074;4.758;2023-03-15T10:59:24;3.13;;;0.55;;
78372;SDS011;67656;52.074;4.758;2023-03-15T11:04:26;3.95;;;0.60;;
78372;SDS011;67656;52.074;4.758;2023-03-15T11:09:26;3.85;;;1.00;;
78372;SDS011;67656;52.074;4.758;2023-03-15T11:14:39;1.77;;;0.45;;
78372;SDS011;67656;52.074;4.758;2023-03-15T11:19:44;1.85;;;0.60;;
78372;SDS011;67656;52.074;4.758;2023-03-15T11:24:53;3.95;;;0.80;;
78372;SDS011;67656;52.074;4.758;2023-03-15T11:29:54;2.83;;;0.52;;
78372;SDS011;67656;52.074;4.758;2023-03-15T11:34:58;2.83;;;0.57;;
78372;SDS011;67656;52.074;4.758;2023-03-15T11:40:04;3.00;;;0.77;;
78372;SDS011;67656;52.074;4.758;2023-03-15T11:51:01;2.88;;;0.70;;
78372;SDS011;67656;52.074;4.758;2023-03-15T12:01:50;2.88;;;0.60;;
78372;SDS011;67656;52.074;4.758;2023-03-15T12:06:55;5.90;;;1.02;;
78372;SDS011;67656;52.074;4.758;2023-03-15T12:11:58;2.55;;;0.60;;
78372;SDS011;67656;52.074;4.758;2023-03-15T12:22:25;1.65;;;0.60;;
78372;SDS011;67656;52.074;4.758;2023-03-15T12:27:36;2.20;;;0.67;;
78372;SDS011;67656;52.074;4.758;2023-03-15T12:32:44;1.43;;;0.60;;
78372;SDS011;67656;52.074;4.758;2023-03-15T12:37:50;2.95;;;0.70;;
78372;SDS011;67656;52.074;4.758;2023-03-15T12:52:58;5.90;;;0.70;;
78372;SDS011;67656;52.074;4.758;2023-03-15T12:58:00;2.05;;;0.63;;
78372;SDS011;67656;52.074;4.758;2023-03-15T13:03:06;1.95;;;0.57;;
78372;SDS011;67656;52.074;4.758;2023-03-15T13:24:38;1.90;;;0.80;;
78372;SDS011;67656;52.074;4.758;2023-03-15T13:29:48;7.07;;;1.10;;
78372;SDS011;67656;52.074;4.758;2023-03-15T13:34:49;3.13;;;0.95;;
78372;SDS011;67656;52.074;4.758;2023-03-15T13:39:58;1.45;;;0.60;;
78372;SDS011;67656;52.074;4.758;2023-03-15T13:45:10;3.05;;;1.10;;
78372;SDS011;67656;52.074;4.758;2023-03-15T13:50:13;2.55;;;0.95;;
78372;SDS011;67656;52.074;4.758;2023-03-15T13:55:20;3.10;;;1.13;;
78372;SDS011;67656;52.074;4.758;2023-03-15T14:00:22;2.55;;;1.20;;
78372;SDS011;67656;52.074;4.758;2023-03-15T14:05:26;4.35;;;1.40;;
78372;SDS011;67656;52.074;4.758;2023-03-15T14:15:36;2.38;;;1.15;;
78372;SDS011;67656;52.074;4.758;2023-03-15T14:20:44;6.25;;;1.00;;
78372;SDS011;67656;52.074;4.758;2023-03-15T14:25:52;5.70;;;1.02;;
78372;SDS011;67656;52.074;4.758;2023-03-15T14:30:55;1.80;;;0.65;;
78372;SDS011;67656;52.074;4.758;2023-03-15T14:36:00;1.15;;;0.50;;
78372;SDS011;67656;52.074;4.758;2023-03-15T14:41:36;2.10;;;0.50;;
78372;SDS011;67656;52.074;4.758;2023-03-15T14:46:31;3.42;;;0.47;;
78372;SDS011;67656;52.074;4.758;2023-03-15T14:51:31;1.25;;;0.50;;
78372;SDS011;67656;52.074;4.758;2023-03-15T14:56:31;1.30;;;0.60;;
78372;SDS011;67656;52.074;4.758;2023-03-15T15:01:31;2.52;;;0.50;;
78372;SDS011;67656;52.074;4.758;2023-03-15T15:06:35;1.33;;;0.35;;
78372;SDS011;67656;52.074;4.758;2023-03-15T15:11:41;4.43;;;0.60;;
78372;SDS011;67656;52.074;4.758;2023-03-15T15:16:41;1.94;;;0.60;;
78372;SDS011;67656;52.074;4.758;2023-03-15T15:21:57;2.70;;;0.80;;
78372;SDS011;67656;52.074;4.758;2023-03-15T15:27:08;3.75;;;0.73;;
78372;SDS011;67656;52.074;4.758;2023-03-15T15:32:09;2.38;;;0.60;;
78372;SDS011;67656;52.074;4.758;2023-03-15T15:37:10;1.80;;;0.56;;
78372;SDS011;67656;52.074;4.758;2023-03-15T15:42:10;1.77;;;0.60;;
78372;SDS011;67656;52.074;4.758;2023-03-15T15:47:11;2.58;;;0.60;;
78372;SDS011;67656;52.074;4.758;2023-03-15T15:52:11;1.88;;;0.52;;
78372;SDS011;67656;52.074;4.758;2023-03-15T15:57:12;3.00;;;0.70;;
78372;SDS011;67656;52.074;4.758;2023-03-15T16:02:13;2.78;;;0.70;;
78372;SDS011;67656;52.074;4.758;2023-03-15T16:07:18;1.13;;;0.60;;
78372;SDS011;67656;52.074;4.758;2023-03-15T16:12:35;2.30;;;0.90;;
78372;SDS011;67656;52.074;4.758;2023-03-15T16:17:35;1.53;;;0.53;;
78372;SDS011;67656;52.074;4.758;2023-03-15T16:22:36;2.00;;;0.77;;
78372;SDS011;67656;52.074;4.758;2023-03-15T16:27:38;2.38;;;0.65;;
78372;SDS011;67656;52.074;4.758;2023-03-15T16:32:39;1.70;;;0.87;;
78372;SDS011;67656;52.074;4.758;2023-03-15T16:37:40;2.73;;;0.80;;
78372;SDS011;67656;52.074;4.758;2023-03-15T16:42:41;2.83;;;1.00;;
78372;SDS011;67656;52.074;4.758;2023-03-15T16:47:42;1.00;;;0.70;;
78372;SDS011;67656;52.074;4.758;2023-03-15T16:52:42;3.27;;;1.00;;
78372;SDS011;67656;52.074;4.758;2023-03-15T16:57:45;1.53;;;0.70;;
78372;SDS011;67656;52.074;4.758;2023-03-15T17:02:47;3.33;;;1.37;;
78372;SDS011;67656;52.074;4.758;2023-03-15T17:07:49;2.87;;;1.10;;
78372;SDS011;67656;52.074;4.758;2023-03-15T17:12:51;4.90;;;1.60;;
78372;SDS011;67656;52.074;4.758;2023-03-15T17:17:53;4.33;;;1.80;;
78372;SDS011;67656;52.074;4.758;2023-03-15T17:22:59;3.70;;;1.77;;
78372;SDS011;67656;52.074;4.758;2023-03-15T17:28:01;7.00;;;1.80;;
78372;SDS011;67656;52.074;4.758;2023-03-15T17:33:04;5.57;;;1.57;;
78372;SDS011;67656;52.074;4.758;2023-03-15T17:38:05;4.40;;;1.70;;
78372;SDS011;67656;52.074;4.758;2023-03-15T17:43:13;5.07;;;1.97;;
78372;SDS011;67656;52.074;4.758;2023-03-15T17:48:14;4.97;;;1.80;;
78372;SDS011;67656;52.074;4.758;2023-03-15T17:53:15;3.17;;;1.80;;
78372;SDS011;67656;52.074;4.758;2023-03-15T17:58:18;5.77;;;2.30;;
78372;SDS011;67656;52.074;4.758;2023-03-15T18:03:21;4.57;;;2.10;;
78372;SDS011;67656;52.074;4.758;2023-03-15T18:08:22;4.73;;;2.30;;
78372;SDS011;67656;52.074;4.758;2023-03-15T18:13:22;9.30;;;2.30;;
78372;SDS011;67656;52.074;4.758;2023-03-15T18:18:22;6.47;;;2.70;;
78372;SDS011;67656;52.074;4.758;2023-03-15T18:23:23;4.63;;;2.33;;
78372;SDS011;67656;52.074;4.758;2023-03-15T18:28:23;7.00;;;2.50;;
78372;SDS011;67656;52.074;4.758;2023-03-15T18:33:23;4.17;;;2.50;;
78372;SDS011;67656;52.074;4.758;2023-03-15T18:38:24;5.40;;;2.53;;
78372;SDS011;67656;52.074;4.758;2023-03-15T18:43:24;5.93;;;2.70;;
78372;SDS011;67656;52.074;4.758;2023-03-15T18:48:25;6.57;;;2.77;;
78372;SDS011;67656;52.074;4.758;2023-03-15T18:53:25;6.63;;;2.70;;
78372;SDS011;67656;52.074;4.758;2023-03-15T18:58:26;4.87;;;2.50;;
78372;SDS011;67656;52.074;4.758;2023-03-15T19:03:26;4.33;;;2.33;;
78372;SDS011;67656;52.074;4.758;2023-03-15T19:08:26;4.73;;;2.83;;
78372;SDS011;67656;52.074;4.758;2023-03-15T19:13:27;7.60;;;2.70;;
78372;SDS011;67656;52.074;4.758;2023-03-15T19:18:27;6.47;;;2.90;;
78372;SDS011;67656;52.074;4.758;2023-03-15T19:23:28;4.70;;;3.00;;
78372;SDS011;67656;52.074;4.758;2023-03-15T19:28:28;5.04;;;2.80;;
78372;SDS011;67656;52.074;4.758;2023-03-15T19:33:30;4.40;;;2.93;;
78372;SDS011;67656;52.074;4.758;2023-03-15T19:38:30;6.53;;;3.20;;
78372;SDS011;67656;52.074;4.758;2023-03-15T19:43:30;6.13;;;3.00;;
78372;SDS011;67656;52.074;4.758;2023-03-15T19:48:31;9.57;;;3.20;;
78372;SDS011;67656;52.074;4.758;2023-03-15T19:53:31;7.63;;;3.83;;
78372;SDS011;67656;52.074;4.758;2023-03-15T19:58:31;8.10;;;3.57;;
78372;SDS011;67656;52.074;4.758;2023-03-15T20:03:32;7.27;;;3.23;;
78372;SDS011;67656;52.074;4.758;2023-03-15T20:08:32;6.74;;;3.18;;
78372;SDS011;67656;52.074;4.758;2023-03-15T20:13:33;4.83;;;3.20;;
78372;SDS011;67656;52.074;4.758;2023-03-15T20:18:34;6.60;;;3.00;;
78372;SDS011;67656;52.074;4.758;2023-03-15T20:23:35;5.07;;;2.95;;
78372;SDS011;67656;52.074;4.758;2023-03-15T20:28:36;4.77;;;2.93;;
78372;SDS011;67656;52.074;4.758;2023-03-15T20:33:38;4.73;;;3.10;;
78372;SDS011;67656;52.074;4.758;2023-03-15T20:38:38;6.40;;;3.40;;
78372;SDS011;67656;52.074;4.758;2023-03-15T20:43:39;7.67;;;3.60;;
78372;SDS011;67656;52.074;4.758;2023-03-15T20:48:40;9.50;;;3.80;;
78372;SDS011;67656;52.074;4.758;2023-03-15T20:53:42;6.37;;;3.37;;
78372;SDS011;67656;52.074;4.758;2023-03-15T20:58:43;9.87;;;3.73;;
78372;SDS011;67656;52.074;4.758;2023-03-15T21:03:44;7.37;;;3.70;;
78372;SDS011;67656;52.074;4.758;2023-03-15T21:08:45;9.43;;;3.97;;
78372;SDS011;67656;52.074;4.758;2023-03-15T21:13:45;7.83;;;3.90;;
78372;SDS011;67656;52.074;4.758;2023-03-15T21:18:45;8.27;;;3.83;;
78372;SDS011;67656;52.074;4.758;2023-03-15T21:23:46;9.33;;;3.87;;
78372;SDS011;67656;52.074;4.758;2023-03-15T21:28:46;9.30;;;3.83;;
78372;SDS011;67656;52.074;4.758;2023-03-15T21:33:47;8.40;;;4.00;;
78372;SDS011;67656;52.074;4.758;2023-03-15T21:38:47;9.97;;;3.70;;
78372;SDS011;67656;52.074;4.758;2023-03-15T21:43:47;7.83;;;3.53;;
78372;SDS011;67656;52.074;4.758;2023-03-15T21:48:48;6.73;;;3.47;;
78372;SDS011;67656;52.074;4.758;2023-03-15T21:53:48;7.17;;;3.77;;
78372;SDS011;67656;52.074;4.758;2023-03-15T21:58:48;9.97;;;3.67;;
78372;SDS011;67656;52.074;4.758;2023-03-15T22:03:49;9.63;;;3.90;;
78372;SDS011;67656;52.074;4.758;2023-03-15T22:08:50;7.40;;;3.50;;
78372;SDS011;67656;52.074;4.758;2023-03-15T22:13:51;8.53;;;3.33;;
78372;SDS011;67656;52.074;4.758;2023-03-15T22:18:51;6.63;;;3.27;;
78372;SDS011;67656;52.074;4.758;2023-03-15T22:23:51;7.93;;;3.50;;
78372;SDS011;67656;52.074;4.758;2023-03-15T22:28:52;8.70;;;3.77;;
78372;SDS011;67656;52.074;4.758;2023-03-15T22:33:52;8.03;;;3.50;;
78372;SDS011;67656;52.074;4.758;2023-03-15T22:38:52;7.37;;;3.73;;
78372;SDS011;67656;52.074;4.758;2023-03-15T22:43:53;6.80;;;3.97;;
78372;SDS011;67656;52.074;4.758;2023-03-15T22:48:54;7.30;;;3.70;;
78372;SDS011;67656;52.074;4.758;2023-03-15T22:53:54;6.70;;;3.60;;
78372;SDS011;67656;52.074;4.758;2023-03-15T22:58:54;7.47;;;3.90;;
78372;SDS011;67656;52.074;4.758;2023-03-15T23:03:55;6.93;;;3.43;;
78372;SDS011;67656;52.074;4.758;2023-03-15T23:08:55;7.47;;;3.70;;
78372;SDS011;67656;52.074;4.758;2023-03-15T23:13:55;8.47;;;3.53;;
78372;SDS011;67656;52.074;4.758;2023-03-15T23:18:56;9.43;;;3.50;;
78372;SDS011;67656;52.074;4.758;2023-03-15T23:23:56;7.50;;;3.50;;
78372;SDS011;67656;52.074;4.758;2023-03-15T23:28:56;6.60;;;3.20;;
78372;SDS011;67656;52.074;4.758;2023-03-15T23:33:57;6.60;;;3.40;;
78372;SDS011;67656;52.074;4.758;2023-03-15T23:38:57;6.57;;;3.23;;
78372;SDS011;67656;52.074;4.758;2023-03-15T23:43:58;8.43;;;3.90;;
78372;SDS011;67656;52.074;4.758;2023-03-15T23:48:58;7.13;;;3.50;;
78372;SDS011;67656;52.074;4.758;2023-03-15T23:53:59;7.30;;;3.20;;
78372;SDS011;67656;52.074;4.758;2023-03-15T23:59:00;5.43;;;3.20;;
